sensor_id;sensor_type;location;lat;lon;timestamp;P1;durP1;ratioP1;P2;durP2;ratioP2
56171;SDS011;42052;41.634;-0.946;2022-08-11T00:01:45;5.90;;;2.92;;
56171;SDS011;42052;41.634;-0.946;2022-08-11T00:04:17;5.90;;;3.00;;
56171;SDS011;42052;41.634;-0.946;2022-08-11T00:06:46;4.80;;;2.70;;
56171;SDS011;42052;41.634;-0.946;2022-08-11T00:09:17;4.95;;;2.80;;
56171;SDS011;42052;41.634;-0.946;2022-08-11T00:11:56;4.15;;;2.70;;
56171;SDS011;42052;41.634;-0.946;2022-08-11T00:14:27;5.03;;;2.85;;
56171;SDS011;42052;41.634;-0.946;2022-08-11T00:17:04;4.47;;;2.93;;
56171;SDS011;42052;41.634;-0.946;2022-08-11T00:19:50;3.58;;;2.63;;
56171;SDS011;42052;41.634;-0.946;2022-08-11T00:22:19;4.20;;;2.70;;
56171;SDS011;42052;41.634;-0.946;2022-08-11T00:24:46;5.10;;;2.63;;
56171;SDS011;42052;41.634;-0.946;2022-08-11T00:27:14;5.00;;;2.58;;
56171;SDS011;42052;41.634;-0.946;2022-08-11T00:29:39;4.82;;;2.70;;
56171;SDS011;42052;41.634;-0.946;2022-08-11T00:32:05;5.50;;;3.05;;
56171;SDS011;42052;41.634;-0.946;2022-08-11T00:37:08;4.93;;;2.70;;
56171;SDS011;42052;41.634;-0.946;2022-08-11T00:39:45;4.43;;;2.67;;
56171;SDS011;42052;41.634;-0.946;2022-08-11T00:48:19;4.30;;;2.50;;
56171;SDS011;42052;41.634;-0.946;2022-08-11T00:50:40;4.47;;;2.80;;
56171;SDS011;42052;41.634;-0.946;2022-08-11T00:53:35;3.85;;;2.60;;
56171;SDS011;42052;41.634;-0.946;2022-08-11T01:02:24;3.30;;;2.20;;
56171;SDS011;42052;41.634;-0.946;2022-08-11T01:27:31;3.90;;;2.75;;
56171;SDS011;42052;41.634;-0.946;2022-08-11T01:33:41;4.30;;;2.53;;
56171;SDS011;42052;41.634;-0.946;2022-08-11T01:36:15;3.92;;;2.22;;
56171;SDS011;42052;41.634;-0.946;2022-08-11T01:39:23;2.75;;;2.20;;
56171;SDS011;42052;41.634;-0.946;2022-08-11T01:48:17;3.58;;;2.20;;
56171;SDS011;42052;41.634;-0.946;2022-08-11T01:51:13;3.95;;;2.50;;
56171;SDS011;42052;41.634;-0.946;2022-08-11T01:59:17;4.10;;;2.20;;
56171;SDS011;42052;41.634;-0.946;2022-08-11T02:13:29;3.58;;;2.40;;
56171;SDS011;42052;41.634;-0.946;2022-08-11T02:19:17;3.60;;;2.30;;
56171;SDS011;42052;41.634;-0.946;2022-08-11T02:28:04;2.43;;;1.87;;
56171;SDS011;42052;41.634;-0.946;2022-08-11T02:33:59;3.20;;;2.20;;
56171;SDS011;42052;41.634;-0.946;2022-08-11T02:42:26;2.95;;;2.03;;
56171;SDS011;42052;41.634;-0.946;2022-08-11T02:54:07;3.60;;;2.08;;
56171;SDS011;42052;41.634;-0.946;2022-08-11T02:56:57;2.97;;;2.00;;
56171;SDS011;42052;41.634;-0.946;2022-08-11T03:14:12;2.70;;;2.20;;
56171;SDS011;42052;41.634;-0.946;2022-08-11T03:19:42;2.65;;;2.10;;
56171;SDS011;42052;41.634;-0.946;2022-08-11T03:30:05;3.78;;;2.00;;
56171;SDS011;42052;41.634;-0.946;2022-08-11T03:45:00;3.40;;;2.15;;
56171;SDS011;42052;41.634;-0.946;2022-08-11T03:47:56;3.13;;;2.10;;
56171;SDS011;42052;41.634;-0.946;2022-08-11T03:53:47;3.13;;;1.85;;
56171;SDS011;42052;41.634;-0.946;2022-08-11T04:07:22;3.03;;;1.80;;
56171;SDS011;42052;41.634;-0.946;2022-08-11T04:10:07;3.35;;;2.03;;
56171;SDS011;42052;41.634;-0.946;2022-08-11T04:30:05;2.60;;;1.70;;
56171;SDS011;42052;41.634;-0.946;2022-08-11T04:32:38;2.63;;;1.80;;
56171;SDS011;42052;41.634;-0.946;2022-08-11T04:35:31;3.50;;;1.85;;
56171;SDS011;42052;41.634;-0.946;2022-08-11T04:38:28;2.15;;;1.73;;
56171;SDS011;42052;41.634;-0.946;2022-08-11T04:41:19;2.67;;;1.90;;
56171;SDS011;42052;41.634;-0.946;2022-08-11T04:44:49;3.25;;;1.80;;
56171;SDS011;42052;41.634;-0.946;2022-08-11T04:47:12;2.63;;;1.80;;
56171;SDS011;42052;41.634;-0.946;2022-08-11T04:50:06;2.38;;;1.88;;
56171;SDS011;42052;41.634;-0.946;2022-08-11T04:56:42;2.45;;;1.83;;
56171;SDS011;42052;41.634;-0.946;2022-08-11T04:59:36;2.85;;;1.85;;
56171;SDS011;42052;41.634;-0.946;2022-08-11T05:11:25;2.15;;;1.55;;
56171;SDS011;42052;41.634;-0.946;2022-08-11T05:16:55;2.17;;;1.60;;
56171;SDS011;42052;41.634;-0.946;2022-08-11T05:19:46;3.13;;;1.88;;
56171;SDS011;42052;41.634;-0.946;2022-08-11T05:22:31;2.25;;;1.80;;
56171;SDS011;42052;41.634;-0.946;2022-08-11T05:25:19;2.38;;;1.80;;
56171;SDS011;42052;41.634;-0.946;2022-08-11T05:29:26;2.67;;;1.80;;
56171;SDS011;42052;41.634;-0.946;2022-08-11T05:31:34;3.20;;;1.80;;
56171;SDS011;42052;41.634;-0.946;2022-08-11T05:34:33;3.28;;;1.80;;
56171;SDS011;42052;41.634;-0.946;2022-08-11T05:37:21;3.17;;;1.80;;
56171;SDS011;42052;41.634;-0.946;2022-08-11T05:39:56;3.17;;;1.73;;
56171;SDS011;42052;41.634;-0.946;2022-08-11T05:42:55;2.13;;;1.60;;
56171;SDS011;42052;41.634;-0.946;2022-08-11T05:46:21;2.17;;;1.70;;
56171;SDS011;42052;41.634;-0.946;2022-08-11T05:48:59;3.17;;;1.55;;
56171;SDS011;42052;41.634;-0.946;2022-08-11T05:51:43;2.25;;;1.80;;
56171;SDS011;42052;41.634;-0.946;2022-08-11T05:54:28;3.05;;;1.80;;
56171;SDS011;42052;41.634;-0.946;2022-08-11T05:57:20;2.70;;;1.67;;
56171;SDS011;42052;41.634;-0.946;2022-08-11T06:00:00;2.10;;;1.52;;
56171;SDS011;42052;41.634;-0.946;2022-08-11T06:02:29;3.10;;;1.90;;
56171;SDS011;42052;41.634;-0.946;2022-08-11T06:04:56;2.53;;;1.55;;
56171;SDS011;42052;41.634;-0.946;2022-08-11T06:07:28;1.70;;;1.50;;
56171;SDS011;42052;41.634;-0.946;2022-08-11T06:09:55;2.42;;;1.60;;
56171;SDS011;42052;41.634;-0.946;2022-08-11T06:12:25;2.85;;;1.80;;
56171;SDS011;42052;41.634;-0.946;2022-08-11T06:15:01;2.33;;;1.80;;
56171;SDS011;42052;41.634;-0.946;2022-08-11T06:17:30;2.47;;;1.80;;
56171;SDS011;42052;41.634;-0.946;2022-08-11T06:20:05;2.28;;;1.63;;
56171;SDS011;42052;41.634;-0.946;2022-08-11T06:22:36;4.30;;;1.70;;
56171;SDS011;42052;41.634;-0.946;2022-08-11T06:25:03;2.30;;;1.40;;
56171;SDS011;42052;41.634;-0.946;2022-08-11T06:27:31;2.38;;;1.70;;
56171;SDS011;42052;41.634;-0.946;2022-08-11T06:30:00;2.85;;;1.77;;
56171;SDS011;42052;41.634;-0.946;2022-08-11T06:32:35;2.30;;;1.75;;
56171;SDS011;42052;41.634;-0.946;2022-08-11T06:49:07;3.42;;;1.83;;
56171;SDS011;42052;41.634;-0.946;2022-08-11T06:51:57;2.30;;;1.55;;
56171;SDS011;42052;41.634;-0.946;2022-08-11T06:54:31;2.53;;;1.40;;
56171;SDS011;42052;41.634;-0.946;2022-08-11T06:57:00;3.50;;;1.73;;
56171;SDS011;42052;41.634;-0.946;2022-08-11T06:59:46;1.92;;;1.42;;
56171;SDS011;42052;41.634;-0.946;2022-08-11T07:14:31;2.13;;;1.50;;
56171;SDS011;42052;41.634;-0.946;2022-08-11T07:17:22;2.03;;;1.67;;
56171;SDS011;42052;41.634;-0.946;2022-08-11T07:19:58;1.63;;;1.40;;
56171;SDS011;42052;41.634;-0.946;2022-08-11T07:22:48;1.65;;;1.40;;
56171;SDS011;42052;41.634;-0.946;2022-08-11T07:25:38;1.85;;;1.52;;
56171;SDS011;42052;41.634;-0.946;2022-08-11T07:28:25;2.40;;;1.70;;
56171;SDS011;42052;41.634;-0.946;2022-08-11T07:31:23;1.73;;;1.60;;
56171;SDS011;42052;41.634;-0.946;2022-08-11T07:34:37;2.10;;;1.70;;
56171;SDS011;42052;41.634;-0.946;2022-08-11T07:36:55;2.40;;;1.55;;
56171;SDS011;42052;41.634;-0.946;2022-08-11T07:39:26;2.42;;;1.70;;
56171;SDS011;42052;41.634;-0.946;2022-08-11T07:41:56;1.98;;;1.50;;
56171;SDS011;42052;41.634;-0.946;2022-08-11T07:44:23;2.80;;;1.63;;
56171;SDS011;42052;41.634;-0.946;2022-08-11T07:46:53;1.60;;;1.50;;
56171;SDS011;42052;41.634;-0.946;2022-08-11T07:49:38;2.08;;;1.38;;
56171;SDS011;42052;41.634;-0.946;2022-08-11T07:52:24;2.25;;;1.52;;
56171;SDS011;42052;41.634;-0.946;2022-08-11T07:55:02;1.80;;;1.60;;
56171;SDS011;42052;41.634;-0.946;2022-08-11T07:57:31;3.03;;;1.60;;
56171;SDS011;42052;41.634;-0.946;2022-08-11T08:00:16;3.58;;;1.52;;
56171;SDS011;42052;41.634;-0.946;2022-08-11T08:03:01;2.65;;;1.60;;
56171;SDS011;42052;41.634;-0.946;2022-08-11T08:05:48;2.00;;;1.55;;
56171;SDS011;42052;41.634;-0.946;2022-08-11T08:08:34;1.88;;;1.60;;
56171;SDS011;42052;41.634;-0.946;2022-08-11T08:11:20;1.48;;;1.33;;
56171;SDS011;42052;41.634;-0.946;2022-08-11T08:14:09;2.00;;;1.30;;
56171;SDS011;42052;41.634;-0.946;2022-08-11T08:16:54;1.85;;;1.45;;
56171;SDS011;42052;41.634;-0.946;2022-08-11T08:19:45;1.75;;;1.60;;
56171;SDS011;42052;41.634;-0.946;2022-08-11T08:22:21;2.42;;;1.38;;
56171;SDS011;42052;41.634;-0.946;2022-08-11T08:24:47;1.90;;;1.60;;
56171;SDS011;42052;41.634;-0.946;2022-08-11T08:27:14;2.67;;;1.50;;
56171;SDS011;42052;41.634;-0.946;2022-08-11T08:29:41;1.90;;;1.48;;
56171;SDS011;42052;41.634;-0.946;2022-08-11T08:32:28;1.90;;;1.65;;
56171;SDS011;42052;41.634;-0.946;2022-08-11T08:34:55;1.98;;;1.50;;
56171;SDS011;42052;41.634;-0.946;2022-08-11T08:37:24;1.70;;;1.30;;
56171;SDS011;42052;41.634;-0.946;2022-08-11T08:39:51;1.55;;;1.42;;
56171;SDS011;42052;41.634;-0.946;2022-08-11T08:42:27;1.60;;;1.40;;
56171;SDS011;42052;41.634;-0.946;2022-08-11T08:44:57;2.38;;;1.50;;
56171;SDS011;42052;41.634;-0.946;2022-08-11T08:49:58;1.60;;;1.50;;
56171;SDS011;42052;41.634;-0.946;2022-08-11T08:52:26;2.25;;;1.40;;
56171;SDS011;42052;41.634;-0.946;2022-08-11T08:55:00;2.00;;;1.35;;
56171;SDS011;42052;41.634;-0.946;2022-08-11T08:57:28;1.30;;;1.20;;
56171;SDS011;42052;41.634;-0.946;2022-08-11T08:59:57;1.75;;;1.25;;
56171;SDS011;42052;41.634;-0.946;2022-08-11T09:02:25;1.67;;;1.40;;
56171;SDS011;42052;41.634;-0.946;2022-08-11T09:04:52;2.20;;;1.50;;
56171;SDS011;42052;41.634;-0.946;2022-08-11T09:07:19;1.40;;;1.20;;
56171;SDS011;42052;41.634;-0.946;2022-08-11T09:09:55;1.63;;;1.50;;
56171;SDS011;42052;41.634;-0.946;2022-08-11T09:12:27;1.95;;;1.10;;
56171;SDS011;42052;41.634;-0.946;2022-08-11T09:17:32;1.67;;;1.50;;
56171;SDS011;42052;41.634;-0.946;2022-08-11T09:20:06;1.65;;;1.30;;
56171;SDS011;42052;41.634;-0.946;2022-08-11T09:22:43;1.70;;;1.30;;
56171;SDS011;42052;41.634;-0.946;2022-08-11T09:25:42;1.50;;;1.40;;
56171;SDS011;42052;41.634;-0.946;2022-08-11T09:28:27;1.30;;;1.20;;
56171;SDS011;42052;41.634;-0.946;2022-08-11T09:30:55;1.25;;;1.15;;
56171;SDS011;42052;41.634;-0.946;2022-08-11T09:33:25;1.95;;;1.30;;
56171;SDS011;42052;41.634;-0.946;2022-08-11T09:35:53;2.67;;;1.48;;
56171;SDS011;42052;41.634;-0.946;2022-08-11T09:38:22;1.40;;;1.30;;
56171;SDS011;42052;41.634;-0.946;2022-08-11T09:41:09;1.40;;;1.30;;
56171;SDS011;42052;41.634;-0.946;2022-08-11T09:43:40;1.90;;;1.30;;
56171;SDS011;42052;41.634;-0.946;2022-08-11T09:46:28;1.38;;;1.27;;
56171;SDS011;42052;41.634;-0.946;2022-08-11T09:48:56;1.50;;;1.30;;
56171;SDS011;42052;41.634;-0.946;2022-08-11T09:51:24;1.50;;;1.40;;
56171;SDS011;42052;41.634;-0.946;2022-08-11T09:53:53;1.88;;;1.50;;
56171;SDS011;42052;41.634;-0.946;2022-08-11T09:56:22;1.33;;;1.23;;
56171;SDS011;42052;41.634;-0.946;2022-08-11T09:59:08;1.55;;;1.13;;
56171;SDS011;42052;41.634;-0.946;2022-08-11T10:01:47;1.83;;;1.50;;
56171;SDS011;42052;41.634;-0.946;2022-08-11T10:04:17;1.50;;;1.40;;
56171;SDS011;42052;41.634;-0.946;2022-08-11T10:06:51;1.30;;;1.20;;
56171;SDS011;42052;41.634;-0.946;2022-08-11T10:12:20;1.13;;;1.05;;
56171;SDS011;42052;41.634;-0.946;2022-08-11T10:14:53;1.35;;;1.25;;
56171;SDS011;42052;41.634;-0.946;2022-08-11T10:17:46;1.48;;;1.38;;
56171;SDS011;42052;41.634;-0.946;2022-08-11T10:20:36;1.35;;;1.25;;
56171;SDS011;42052;41.634;-0.946;2022-08-11T10:23:03;1.65;;;1.20;;
56171;SDS011;42052;41.634;-0.946;2022-08-11T10:25:50;1.40;;;1.30;;
56171;SDS011;42052;41.634;-0.946;2022-08-11T10:28:35;1.50;;;1.20;;
56171;SDS011;42052;41.634;-0.946;2022-08-11T10:31:05;1.52;;;1.20;;
56171;SDS011;42052;41.634;-0.946;2022-08-11T10:33:49;1.92;;;1.40;;
56171;SDS011;42052;41.634;-0.946;2022-08-11T10:36:30;1.63;;;1.25;;
56171;SDS011;42052;41.634;-0.946;2022-08-11T10:39:13;1.77;;;1.33;;
56171;SDS011;42052;41.634;-0.946;2022-08-11T10:41:42;1.52;;;1.42;;
56171;SDS011;42052;41.634;-0.946;2022-08-11T10:44:30;1.45;;;1.17;;
56171;SDS011;42052;41.634;-0.946;2022-08-11T10:47:02;1.30;;;1.20;;
56171;SDS011;42052;41.634;-0.946;2022-08-11T10:49:47;1.67;;;1.10;;
56171;SDS011;42052;41.634;-0.946;2022-08-11T10:52:35;1.63;;;1.52;;
56171;SDS011;42052;41.634;-0.946;2022-08-11T10:55:20;1.42;;;1.20;;
56171;SDS011;42052;41.634;-0.946;2022-08-11T10:58:07;1.73;;;1.40;;
56171;SDS011;42052;41.634;-0.946;2022-08-11T11:00:53;1.27;;;1.17;;
56171;SDS011;42052;41.634;-0.946;2022-08-11T11:03:26;1.55;;;1.20;;
56171;SDS011;42052;41.634;-0.946;2022-08-11T11:05:55;1.35;;;1.25;;
56171;SDS011;42052;41.634;-0.946;2022-08-11T11:08:28;1.73;;;1.10;;
56171;SDS011;42052;41.634;-0.946;2022-08-11T11:11:14;1.50;;;1.30;;
56171;SDS011;42052;41.634;-0.946;2022-08-11T11:13:43;1.20;;;1.10;;
56171;SDS011;42052;41.634;-0.946;2022-08-11T11:16:31;1.30;;;1.20;;
56171;SDS011;42052;41.634;-0.946;2022-08-11T11:19:18;1.70;;;1.20;;
56171;SDS011;42052;41.634;-0.946;2022-08-11T11:21:49;1.77;;;1.33;;
56171;SDS011;42052;41.634;-0.946;2022-08-11T11:24:52;2.20;;;1.40;;
56171;SDS011;42052;41.634;-0.946;2022-08-11T11:30:13;1.15;;;1.05;;
56171;SDS011;42052;41.634;-0.946;2022-08-11T11:35:36;1.23;;;1.13;;
56171;SDS011;42052;41.634;-0.946;2022-08-11T11:38:23;1.20;;;1.10;;
56171;SDS011;42052;41.634;-0.946;2022-08-11T11:40:49;1.30;;;1.20;;
56171;SDS011;42052;41.634;-0.946;2022-08-11T11:43:35;1.20;;;1.10;;
56171;SDS011;42052;41.634;-0.946;2022-08-11T11:46:02;1.40;;;1.30;;
56171;SDS011;42052;41.634;-0.946;2022-08-11T11:48:30;1.33;;;1.15;;
56171;SDS011;42052;41.634;-0.946;2022-08-11T11:50:58;1.30;;;1.20;;
56171;SDS011;42052;41.634;-0.946;2022-08-11T11:53:24;1.40;;;1.20;;
56171;SDS011;42052;41.634;-0.946;2022-08-11T11:55:50;1.70;;;1.35;;
56171;SDS011;42052;41.634;-0.946;2022-08-11T11:58:17;1.15;;;1.05;;
56171;SDS011;42052;41.634;-0.946;2022-08-11T12:01:02;1.52;;;1.10;;
56171;SDS011;42052;41.634;-0.946;2022-08-11T12:03:42;1.30;;;1.20;;
56171;SDS011;42052;41.634;-0.946;2022-08-11T12:06:10;1.20;;;1.10;;
56171;SDS011;42052;41.634;-0.946;2022-08-11T12:08:38;1.75;;;1.20;;
56171;SDS011;42052;41.634;-0.946;2022-08-11T12:11:06;1.20;;;1.10;;
56171;SDS011;42052;41.634;-0.946;2022-08-11T12:13:54;1.40;;;1.30;;
56171;SDS011;42052;41.634;-0.946;2022-08-11T12:16:23;1.17;;;1.08;;
56171;SDS011;42052;41.634;-0.946;2022-08-11T12:18:50;1.38;;;1.17;;
56171;SDS011;42052;41.634;-0.946;2022-08-11T12:21:18;1.02;;;1.02;;
56171;SDS011;42052;41.634;-0.946;2022-08-11T12:23:46;1.30;;;1.17;;
56171;SDS011;42052;41.634;-0.946;2022-08-11T12:26:45;1.70;;;1.23;;
56171;SDS011;42052;41.634;-0.946;2022-08-11T12:29:12;1.45;;;1.05;;
56171;SDS011;42052;41.634;-0.946;2022-08-11T12:31:41;1.27;;;1.17;;
56171;SDS011;42052;41.634;-0.946;2022-08-11T12:34:12;1.77;;;1.20;;
56171;SDS011;42052;41.634;-0.946;2022-08-11T12:36:40;1.30;;;1.20;;
56171;SDS011;42052;41.634;-0.946;2022-08-11T12:39:13;1.50;;;1.20;;
56171;SDS011;42052;41.634;-0.946;2022-08-11T12:41:44;1.50;;;1.20;;
56171;SDS011;42052;41.634;-0.946;2022-08-11T12:44:30;2.00;;;1.23;;
56171;SDS011;42052;41.634;-0.946;2022-08-11T12:47:18;1.85;;;1.20;;
56171;SDS011;42052;41.634;-0.946;2022-08-11T12:49:48;1.80;;;1.20;;
56171;SDS011;42052;41.634;-0.946;2022-08-11T12:52:42;1.40;;;1.20;;
56171;SDS011;42052;41.634;-0.946;2022-08-11T12:55:13;1.70;;;1.30;;
56171;SDS011;42052;41.634;-0.946;2022-08-11T12:58:03;2.38;;;1.50;;
56171;SDS011;42052;41.634;-0.946;2022-08-11T13:00:44;1.88;;;1.20;;
56171;SDS011;42052;41.634;-0.946;2022-08-11T13:03:31;1.42;;;1.25;;
56171;SDS011;42052;41.634;-0.946;2022-08-11T13:06:17;2.55;;;1.45;;
56171;SDS011;42052;41.634;-0.946;2022-08-11T13:08:47;1.63;;;1.30;;
56171;SDS011;42052;41.634;-0.946;2022-08-11T13:11:14;1.40;;;1.25;;
56171;SDS011;42052;41.634;-0.946;2022-08-11T13:13:59;1.80;;;1.30;;
56171;SDS011;42052;41.634;-0.946;2022-08-11T13:16:32;1.80;;;1.20;;
56171;SDS011;42052;41.634;-0.946;2022-08-11T13:19:20;2.55;;;1.60;;
56171;SDS011;42052;41.634;-0.946;2022-08-11T13:21:48;2.03;;;1.40;;
56171;SDS011;42052;41.634;-0.946;2022-08-11T13:24:15;1.70;;;1.40;;
56171;SDS011;42052;41.634;-0.946;2022-08-11T13:26:42;2.15;;;1.35;;
56171;SDS011;42052;41.634;-0.946;2022-08-11T13:29:09;2.22;;;1.42;;
56171;SDS011;42052;41.634;-0.946;2022-08-11T13:31:38;1.70;;;1.50;;
56171;SDS011;42052;41.634;-0.946;2022-08-11T13:34:06;1.80;;;1.52;;
56171;SDS011;42052;41.634;-0.946;2022-08-11T13:36:33;2.10;;;1.50;;
56171;SDS011;42052;41.634;-0.946;2022-08-11T13:39:00;2.53;;;1.55;;
56171;SDS011;42052;41.634;-0.946;2022-08-11T13:41:27;2.70;;;1.65;;
56171;SDS011;42052;41.634;-0.946;2022-08-11T13:44:12;2.55;;;1.67;;
56171;SDS011;42052;41.634;-0.946;2022-08-11T13:46:41;2.05;;;1.45;;
56171;SDS011;42052;41.634;-0.946;2022-08-11T13:49:08;2.22;;;1.60;;
56171;SDS011;42052;41.634;-0.946;2022-08-11T13:51:35;2.25;;;1.70;;
56171;SDS011;42052;41.634;-0.946;2022-08-11T13:54:09;2.47;;;1.55;;
56171;SDS011;42052;41.634;-0.946;2022-08-11T13:56:47;2.95;;;1.60;;
56171;SDS011;42052;41.634;-0.946;2022-08-11T13:59:17;3.78;;;1.70;;
56171;SDS011;42052;41.634;-0.946;2022-08-11T14:01:47;2.55;;;1.65;;
56171;SDS011;42052;41.634;-0.946;2022-08-11T14:06:53;2.33;;;1.80;;
56171;SDS011;42052;41.634;-0.946;2022-08-11T14:09:25;2.05;;;1.63;;
56171;SDS011;42052;41.634;-0.946;2022-08-11T14:11:55;3.00;;;1.60;;
56171;SDS011;42052;41.634;-0.946;2022-08-11T14:14:42;3.45;;;1.67;;
56171;SDS011;42052;41.634;-0.946;2022-08-11T14:17:13;2.72;;;1.80;;
56171;SDS011;42052;41.634;-0.946;2022-08-11T14:19:41;2.35;;;1.70;;
56171;SDS011;42052;41.634;-0.946;2022-08-11T14:22:11;2.25;;;1.67;;
56171;SDS011;42052;41.634;-0.946;2022-08-11T14:24:40;1.98;;;1.70;;
56171;SDS011;42052;41.634;-0.946;2022-08-11T14:27:10;2.55;;;1.73;;
56171;SDS011;42052;41.634;-0.946;2022-08-11T14:29:37;2.40;;;1.50;;
56171;SDS011;42052;41.634;-0.946;2022-08-11T14:32:06;2.60;;;1.63;;
56171;SDS011;42052;41.634;-0.946;2022-08-11T14:34:34;3.20;;;1.70;;
56171;SDS011;42052;41.634;-0.946;2022-08-11T14:37:05;2.83;;;1.75;;
56171;SDS011;42052;41.634;-0.946;2022-08-11T14:39:40;2.42;;;1.77;;
56171;SDS011;42052;41.634;-0.946;2022-08-11T14:42:15;2.13;;;1.70;;
56171;SDS011;42052;41.634;-0.946;2022-08-11T14:45:03;3.80;;;1.70;;
56171;SDS011;42052;41.634;-0.946;2022-08-11T14:47:53;2.08;;;1.67;;
56171;SDS011;42052;41.634;-0.946;2022-08-11T14:50:22;2.70;;;1.95;;
56171;SDS011;42052;41.634;-0.946;2022-08-11T14:55:21;1.98;;;1.70;;
56171;SDS011;42052;41.634;-0.946;2022-08-11T14:58:08;2.22;;;1.70;;
56171;SDS011;42052;41.634;-0.946;2022-08-11T15:00:35;2.05;;;1.50;;
56171;SDS011;42052;41.634;-0.946;2022-08-11T15:03:03;2.90;;;1.75;;
56171;SDS011;42052;41.634;-0.946;2022-08-11T15:08:12;3.17;;;1.98;;
56171;SDS011;42052;41.634;-0.946;2022-08-11T15:10:39;3.03;;;1.80;;
56171;SDS011;42052;41.634;-0.946;2022-08-11T15:13:06;2.53;;;1.70;;
56171;SDS011;42052;41.634;-0.946;2022-08-11T15:15:35;3.58;;;1.92;;
56171;SDS011;42052;41.634;-0.946;2022-08-11T15:18:22;2.75;;;1.92;;
56171;SDS011;42052;41.634;-0.946;2022-08-11T15:20:49;2.50;;;1.58;;
56171;SDS011;42052;41.634;-0.946;2022-08-11T15:23:34;1.83;;;1.50;;
56171;SDS011;42052;41.634;-0.946;2022-08-11T15:26:22;2.78;;;1.75;;
56171;SDS011;42052;41.634;-0.946;2022-08-11T15:29:29;2.90;;;1.90;;
56171;SDS011;42052;41.634;-0.946;2022-08-11T15:32:16;2.83;;;1.58;;
56171;SDS011;42052;41.634;-0.946;2022-08-11T15:34:50;2.33;;;1.70;;
56171;SDS011;42052;41.634;-0.946;2022-08-11T15:37:39;2.70;;;1.70;;
56171;SDS011;42052;41.634;-0.946;2022-08-11T15:46:15;2.58;;;1.60;;
56171;SDS011;42052;41.634;-0.946;2022-08-11T15:51:16;1.55;;;1.30;;
56171;SDS011;42052;41.634;-0.946;2022-08-11T15:54:00;1.75;;;1.50;;
56171;SDS011;42052;41.634;-0.946;2022-08-11T15:56:30;2.80;;;1.90;;
56171;SDS011;42052;41.634;-0.946;2022-08-11T15:58:57;2.65;;;1.70;;
56171;SDS011;42052;41.634;-0.946;2022-08-11T16:01:44;2.63;;;1.73;;
56171;SDS011;42052;41.634;-0.946;2022-08-11T16:04:31;2.95;;;1.60;;
56171;SDS011;42052;41.634;-0.946;2022-08-11T16:07:00;2.35;;;1.65;;
56171;SDS011;42052;41.634;-0.946;2022-08-11T16:09:35;3.42;;;1.67;;
56171;SDS011;42052;41.634;-0.946;2022-08-11T16:12:17;2.60;;;1.60;;
56171;SDS011;42052;41.634;-0.946;2022-08-11T16:14:48;3.28;;;1.63;;
56171;SDS011;42052;41.634;-0.946;2022-08-11T16:17:39;3.00;;;1.80;;
56171;SDS011;42052;41.634;-0.946;2022-08-11T16:20:09;3.15;;;1.88;;
56171;SDS011;42052;41.634;-0.946;2022-08-11T16:22:41;3.92;;;1.95;;
56171;SDS011;42052;41.634;-0.946;2022-08-11T16:25:18;4.25;;;1.90;;
56171;SDS011;42052;41.634;-0.946;2022-08-11T16:27:56;3.78;;;1.90;;
56171;SDS011;42052;41.634;-0.946;2022-08-11T16:30:33;5.43;;;1.83;;
56171;SDS011;42052;41.634;-0.946;2022-08-11T16:33:01;2.97;;;1.80;;
56171;SDS011;42052;41.634;-0.946;2022-08-11T16:35:32;2.90;;;1.90;;
56171;SDS011;42052;41.634;-0.946;2022-08-11T16:38:18;4.07;;;2.03;;
56171;SDS011;42052;41.634;-0.946;2022-08-11T16:41:04;4.40;;;2.10;;
56171;SDS011;42052;41.634;-0.946;2022-08-11T16:43:34;2.83;;;1.85;;
56171;SDS011;42052;41.634;-0.946;2022-08-11T16:46:26;3.00;;;1.90;;
56171;SDS011;42052;41.634;-0.946;2022-08-11T16:49:15;3.13;;;2.30;;
56171;SDS011;42052;41.634;-0.946;2022-08-11T16:54:11;3.10;;;2.10;;
56171;SDS011;42052;41.634;-0.946;2022-08-11T16:56:41;8.65;;;3.20;;
56171;SDS011;42052;41.634;-0.946;2022-08-11T16:59:35;12.52;;;3.65;;
56171;SDS011;42052;41.634;-0.946;2022-08-11T17:02:01;10.63;;;4.20;;
56171;SDS011;42052;41.634;-0.946;2022-08-11T17:07:43;9.55;;;4.07;;
56171;SDS011;42052;41.634;-0.946;2022-08-11T17:10:29;11.25;;;4.10;;
56171;SDS011;42052;41.634;-0.946;2022-08-11T17:13:19;8.48;;;3.80;;
56171;SDS011;42052;41.634;-0.946;2022-08-11T17:16:06;6.85;;;3.35;;
56171;SDS011;42052;41.634;-0.946;2022-08-11T17:18:41;8.02;;;3.67;;
56171;SDS011;42052;41.634;-0.946;2022-08-11T17:21:20;8.07;;;3.70;;
56171;SDS011;42052;41.634;-0.946;2022-08-11T17:23:51;5.70;;;2.88;;
56171;SDS011;42052;41.634;-0.946;2022-08-11T17:26:56;6.10;;;3.08;;
56171;SDS011;42052;41.634;-0.946;2022-08-11T17:30:04;6.95;;;3.05;;
56171;SDS011;42052;41.634;-0.946;2022-08-11T17:32:16;7.07;;;2.95;;
56171;SDS011;42052;41.634;-0.946;2022-08-11T17:35:03;6.65;;;2.80;;
56171;SDS011;42052;41.634;-0.946;2022-08-11T17:37:52;4.90;;;2.70;;
56171;SDS011;42052;41.634;-0.946;2022-08-11T17:40:21;4.90;;;2.60;;
56171;SDS011;42052;41.634;-0.946;2022-08-11T17:42:49;4.97;;;2.90;;
56171;SDS011;42052;41.634;-0.946;2022-08-11T17:45:38;5.68;;;2.70;;
56171;SDS011;42052;41.634;-0.946;2022-08-11T17:48:28;5.07;;;2.80;;
56171;SDS011;42052;41.634;-0.946;2022-08-11T17:50:58;5.07;;;2.53;;
56171;SDS011;42052;41.634;-0.946;2022-08-11T17:53:26;4.30;;;2.60;;
56171;SDS011;42052;41.634;-0.946;2022-08-11T17:56:14;5.95;;;2.85;;
56171;SDS011;42052;41.634;-0.946;2022-08-11T17:59:00;7.30;;;2.70;;
56171;SDS011;42052;41.634;-0.946;2022-08-11T18:01:46;6.55;;;2.95;;
56171;SDS011;42052;41.634;-0.946;2022-08-11T18:04:14;4.20;;;2.60;;
56171;SDS011;42052;41.634;-0.946;2022-08-11T18:06:41;5.38;;;2.60;;
56171;SDS011;42052;41.634;-0.946;2022-08-11T18:09:09;4.35;;;2.20;;
56171;SDS011;42052;41.634;-0.946;2022-08-11T18:11:59;4.30;;;2.58;;
56171;SDS011;42052;41.634;-0.946;2022-08-11T18:14:46;5.20;;;2.38;;
56171;SDS011;42052;41.634;-0.946;2022-08-11T18:17:33;4.13;;;2.20;;
56171;SDS011;42052;41.634;-0.946;2022-08-11T18:20:20;3.47;;;2.10;;
56171;SDS011;42052;41.634;-0.946;2022-08-11T18:23:07;3.45;;;2.20;;
56171;SDS011;42052;41.634;-0.946;2022-08-11T18:25:58;4.17;;;2.07;;
56171;SDS011;42052;41.634;-0.946;2022-08-11T18:28:45;4.45;;;2.10;;
56171;SDS011;42052;41.634;-0.946;2022-08-11T18:31:34;3.47;;;2.10;;
56171;SDS011;42052;41.634;-0.946;2022-08-11T18:34:27;2.60;;;1.92;;
56171;SDS011;42052;41.634;-0.946;2022-08-11T18:37:14;3.47;;;1.98;;
56171;SDS011;42052;41.634;-0.946;2022-08-11T18:40:08;2.90;;;1.90;;
56171;SDS011;42052;41.634;-0.946;2022-08-11T18:42:57;4.25;;;2.20;;
56171;SDS011;42052;41.634;-0.946;2022-08-11T18:45:47;3.33;;;2.00;;
56171;SDS011;42052;41.634;-0.946;2022-08-11T18:48:35;3.25;;;1.75;;
56171;SDS011;42052;41.634;-0.946;2022-08-11T18:51:24;2.97;;;1.80;;
56171;SDS011;42052;41.634;-0.946;2022-08-11T18:54:11;4.07;;;2.10;;
56171;SDS011;42052;41.634;-0.946;2022-08-11T18:56:56;2.97;;;1.85;;
56171;SDS011;42052;41.634;-0.946;2022-08-11T18:59:44;2.95;;;1.80;;
56171;SDS011;42052;41.634;-0.946;2022-08-11T19:02:31;3.35;;;2.15;;
56171;SDS011;42052;41.634;-0.946;2022-08-11T19:05:19;2.88;;;2.03;;
56171;SDS011;42052;41.634;-0.946;2022-08-11T19:08:05;3.95;;;1.92;;
56171;SDS011;42052;41.634;-0.946;2022-08-11T19:10:51;3.20;;;2.00;;
56171;SDS011;42052;41.634;-0.946;2022-08-11T19:13:38;3.97;;;2.17;;
56171;SDS011;42052;41.634;-0.946;2022-08-11T19:16:24;2.38;;;2.08;;
56171;SDS011;42052;41.634;-0.946;2022-08-11T19:19:08;2.78;;;1.80;;
56171;SDS011;42052;41.634;-0.946;2022-08-11T19:21:55;2.00;;;1.80;;
56171;SDS011;42052;41.634;-0.946;2022-08-11T19:24:41;3.60;;;2.10;;
56171;SDS011;42052;41.634;-0.946;2022-08-11T19:27:29;2.50;;;1.70;;
56171;SDS011;42052;41.634;-0.946;2022-08-11T19:30:15;2.70;;;1.70;;
56171;SDS011;42052;41.634;-0.946;2022-08-11T19:33:00;3.10;;;2.03;;
56171;SDS011;42052;41.634;-0.946;2022-08-11T19:35:45;2.38;;;1.98;;
56171;SDS011;42052;41.634;-0.946;2022-08-11T19:38:31;3.20;;;1.90;;